Time;durP1;ratioP1;P1;durP2;ratioP2;P2;SDS_P1;SDS_P2;PMS_P1;PMS_P2;Temp;Humidity;BMP_temperature;BMP_pressure;BME280_temperature;BME280_humidity;BME280_pressure;Samples;Min_cycle;Max_cycle;Signal;HPM_P1;HPM_P2
2022/09/05 00:01:46;;;;;;;3.22;1.90;;;;;;;22.58;48.72;99415.28;4998181;28;20536;-75
2022/09/05 00:04:14;;;;;;;4.65;2.20;;;;;;;22.56;48.72;99415.44;4980801;28;20104;-75
2022/09/05 00:06:43;;;;;;;3.95;1.70;;;;;;;22.61;48.84;99422.06;4979348;28;20148;-75
2022/09/05 00:09:14;;;;;;;3.10;1.88;;;;;;;22.59;48.75;99420.41;4979125;28;20741;-75
2022/09/05 00:11:44;;;;;;;4.82;2.10;;;;;;;22.61;48.95;99419.41;4994901;28;20032;-75
2022/09/05 00:14:29;;;;;;;5.43;2.00;;;;;;;22.58;48.62;99418.78;4978548;28;20030;-75
2022/09/05 00:17:16;;;;;;;3.40;1.70;;;;;;;22.56;48.96;99415.44;5013127;28;20096;-75
2022/09/05 00:19:58;;;;;;;2.95;2.00;;;;;;;22.56;48.67;99415.44;4978509;28;20507;-74
2022/09/05 00:22:42;;;;;;;2.53;2.00;;;;;;;22.51;48.50;99404.53;4979782;28;20033;-75
2022/09/05 00:25:34;;;;;;;6.60;1.92;;;;;;;22.56;48.47;99415.44;5012447;28;20022;-75
2022/09/05 00:27:59;;;;;;;3.53;2.15;;;;;;;22.55;48.36;99407.63;5011919;28;20034;-75
2022/09/05 00:30:25;;;;;;;5.20;1.92;;;;;;;22.54;48.50;99406.81;5012307;28;20052;-75
2022/09/05 00:33:13;;;;;;;3.28;1.90;;;;;;;22.50;48.23;99392.25;4978087;28;20045;-75
2022/09/05 00:35:48;;;;;;;4.93;2.00;;;;;;;22.50;48.33;99397.56;4977120;28;20056;-75
2022/09/05 00:38:18;;;;;;;2.15;1.67;;;;;;;22.50;48.54;99396.72;5012470;28;20029;-75
2022/09/05 00:40:47;;;;;;;3.30;1.83;;;;;;;22.47;48.74;99394.41;4994876;28;20041;-75
2022/09/05 00:43:19;;;;;;;4.68;2.03;;;;;;;22.48;48.30;99388.91;4994563;28;20478;-75
2022/09/05 00:45:50;;;;;;;3.42;2.08;;;;;;;22.46;48.54;99390.13;4962506;28;20509;-75
2022/09/05 00:48:20;;;;;;;2.83;1.70;;;;;;;22.45;48.59;99386.59;4994116;28;20026;-75
2022/09/05 00:51:09;;;;;;;4.57;2.08;;;;;;;22.45;48.50;99391.94;4995171;28;20033;-75
2022/09/05 00:53:48;;;;;;;3.47;1.73;;;;;;;22.37;48.37;99390.16;4995845;28;20037;-74
2022/09/05 00:56:38;;;;;;;5.65;1.70;;;;;;;22.43;48.12;99398.44;4980070;28;20046;-74
2022/09/05 00:59:23;;;;;;;3.88;1.52;;;;;;;22.42;47.99;99396.78;4995745;28;20033;-75
2022/09/05 01:02:29;;;;;;;3.20;1.88;;;;;;;22.41;48.04;99390.66;4994455;28;20030;-72
2022/09/05 01:05:03;;;;;;;4.67;1.90;;;;;;;22.40;48.13;99396.97;4931986;29;20051;-72
2022/09/05 01:07:48;;;;;;;4.18;1.92;;;;;;;22.39;48.19;99398.81;4917012;29;20160;-72
2022/09/05 01:10:34;;;;;;;4.60;1.75;;;;;;;22.40;48.05;99399.63;4918387;29;20235;-72
2022/09/05 01:13:22;;;;;;;3.92;1.80;;;;;;;22.35;48.46;99392.16;4917812;29;20393;-72
2022/09/05 01:16:18;;;;;;;2.33;1.55;;;;;;;22.36;48.08;99395.66;4923122;29;20099;-72
2022/09/05 01:19:05;;;;;;;3.38;1.70;;;;;;;22.33;48.30;99394.19;4931293;29;20032;-72
2022/09/05 01:21:48;;;;;;;4.30;1.90;;;;;;;22.32;48.42;99389.03;4932254;29;20056;-72
2022/09/05 01:24:19;;;;;;;2.22;1.55;;;;;;;22.31;48.70;99387.38;4932138;29;20070;-72
2022/09/05 01:27:09;;;;;;;4.05;2.10;;;;;;;22.22;48.74;99376.78;4932080;29;20130;-72
2022/09/05 01:29:40;;;;;;;5.88;2.20;;;;;;;22.22;48.75;99383.94;4932514;29;20051;-72
2022/09/05 01:32:30;;;;;;;3.17;1.90;;;;;;;22.19;48.82;99381.63;4932012;29;20027;-72
2022/09/05 01:35:20;;;;;;;3.17;1.98;;;;;;;22.16;49.07;99379.31;4932108;29;20048;-71
2022/09/05 01:38:06;;;;;;;4.95;1.70;;;;;;;22.15;48.88;99375.81;4932313;29;20431;-72
2022/09/05 01:40:37;;;;;;;3.88;1.90;;;;;;;;;;4934510;28;20036;-72
2022/09/05 01:43:11;;;;;;;3.45;1.80;;;;;;;22.12;48.92;99370.84;4992774;28;20030;-72
2022/09/05 01:46:08;;;;;;;4.03;1.95;;;;;;;22.12;48.70;99362.88;4993815;28;20469;-71
2022/09/05 01:48:51;;;;;;;3.67;1.88;;;;;;;22.12;48.96;99357.56;4996816;28;20033;-71
2022/09/05 01:51:20;;;;;;;2.63;1.88;;;;;;;22.09;48.63;99354.44;4977713;28;20033;-71
2022/09/05 01:53:53;;;;;;;3.45;1.73;;;;;;;22.04;48.62;99342.50;4993915;28;20404;-72
2022/09/05 01:56:34;;;;;;;6.57;1.88;;;;;;;22.01;49.07;99347.31;4977811;28;20507;-73
2022/09/05 01:59:21;;;;;;;4.20;1.90;;;;;;;22.03;49.17;99348.00;5011368;28;20113;-72
2022/09/05 02:02:05;;;;;;;4.80;1.95;;;;;;;21.99;49.04;99350.16;5015564;28;20485;-72
2022/09/05 02:04:49;;;;;;;2.33;1.75;;;;;;;21.96;49.28;99347.84;5014585;28;20026;-73
2022/09/05 02:07:49;;;;;;;2.83;1.80;;;;;;;21.93;49.06;99352.69;5014790;28;20461;-73
2022/09/05 02:10:24;;;;;;;3.17;1.60;;;;;;;21.91;49.35;99352.06;4997488;28;20026;-72
2022/09/05 02:12:55;;;;;;;4.65;1.55;;;;;;;21.90;49.44;99359.22;5014919;28;20026;-73
2022/09/05 02:15:29;;;;;;;2.65;1.60;;;;;;;21.84;49.50;99351.94;4981222;28;20196;-73
2022/09/05 02:17:56;;;;;;;2.38;1.73;;;;;;;21.84;49.44;99360.72;4965209;28;20053;-72
2022/09/05 02:20:28;;;;;;;3.47;1.60;;;;;;;21.85;49.36;99364.22;4981627;28;20087;-72
2022/09/05 02:23:06;;;;;;;3.38;1.80;;;;;;;21.85;49.18;99370.38;4980256;28;20042;-73
2022/09/05 02:25:57;;;;;;;3.25;1.67;;;;;;;21.84;49.58;99374.03;4997466;28;20440;-72
2022/09/05 02:28:35;;;;;;;3.80;1.63;;;;;;;21.84;49.27;99370.53;4980922;28;20029;-72
2022/09/05 02:31:06;;;;;;;4.78;1.65;;;;;;;21.83;49.47;99366.22;4997709;28;20030;-73
2022/09/05 02:33:37;;;;;;;2.70;1.55;;;;;;;21.84;49.27;99363.38;4964771;28;20061;-73
2022/09/05 02:36:13;;;;;;;4.85;2.03;;;;;;;21.83;49.36;99364.38;4964470;28;20476;-72
2022/09/05 02:38:45;;;;;;;2.47;1.50;;;;;;;21.88;49.18;99371.00;4980911;28;20038;-73
2022/09/05 02:41:45;;;;;;;2.13;1.33;;;;;;;21.81;48.81;99365.56;4981340;28;20573;-73
2022/09/05 02:44:39;;;;;;;3.22;1.60;;;;;;;21.73;49.21;99371.75;5014409;28;20033;-73
2022/09/05 02:47:14;;;;;;;4.82;1.77;;;;;;;21.68;49.22;99363.50;4935042;29;20110;-73
2022/09/05 02:50:13;;;;;;;5.00;1.90;;;;;;;21.70;49.43;99369.44;4934740;29;20047;-73
2022/09/05 02:52:39;;;;;;;3.65;1.60;;;;;;;21.67;49.03;99367.94;4934726;29;20106;-73
2022/09/05 02:55:19;;;;;;;2.60;1.45;;;;;;;21.69;48.94;99367.78;4918648;29;20063;-73
2022/09/05 02:58:13;;;;;;;2.60;1.80;;;;;;;21.71;48.96;99376.41;4920235;29;20142;-74
2022/09/05 03:00:45;;;;;;;2.47;1.60;;;;;;;21.66;49.04;99376.94;4896940;29;20051;-72
2022/09/05 03:03:22;;;;;;;2.22;1.50;;;;;;;21.67;48.98;99377.75;4896672;29;20044;-72
2022/09/05 03:05:59;;;;;;;2.83;1.58;;;;;;;21.63;48.94;99377.28;4896507;29;20181;-72
2022/09/05 03:09:04;;;;;;;2.15;1.48;;;;;;;21.64;48.74;99386.88;4896332;29;20136;-72
2022/09/05 03:11:51;;;;;;;5.50;1.60;;;;;;;21.62;48.90;99385.44;4895496;29;20072;-72
2022/09/05 03:14:20;;;;;;;2.60;1.48;;;;;;;21.63;48.84;99389.72;4896341;29;20056;-73
2022/09/05 03:17:22;;;;;;;2.30;1.70;;;;;;;21.63;48.62;99379.94;4896217;29;20131;-72
2022/09/05 03:20:25;;;;;;;2.55;1.73;;;;;;;21.65;48.82;99383.25;4877417;29;20041;-73
2022/09/05 03:23:09;;;;;;;2.58;1.58;;;;;;;21.62;48.50;99388.91;4895082;29;20508;-73
2022/09/05 03:25:55;;;;;;;3.83;1.73;;;;;;;21.65;48.27;99391.22;4969246;28;20034;-73
2022/09/05 03:28:39;;;;;;;3.92;1.90;;;;;;;21.65;48.05;99390.41;4968969;28;20030;-72
2022/09/05 03:31:35;;;;;;;2.75;1.60;;;;;;;21.68;48.08;99404.16;4969230;28;20046;-72
2022/09/05 03:34:15;;;;;;;2.20;1.50;;;;;;;21.68;47.77;99403.34;4953051;29;20045;-73
2022/09/05 03:36:49;;;;;;;2.58;1.60;;;;;;;21.71;47.85;99407.47;4978662;28;20078;-72
2022/09/05 03:39:36;;;;;;;6.72;1.95;;;;;;;21.67;47.56;99407.81;4992048;28;20530;-73
2022/09/05 03:42:04;;;;;;;5.35;1.92;;;;;;;21.71;47.52;99410.94;4991944;28;20193;-73
2022/09/05 03:44:44;;;;;;;3.72;1.80;;;;;;;21.74;47.75;99415.91;4975559;28;20517;-73
2022/09/05 03:47:31;;;;;;;3.15;1.90;;;;;;;21.73;47.62;99427.56;4991814;28;20607;-73
2022/09/05 03:50:12;;;;;;;2.55;1.90;;;;;;;21.73;47.35;99422.25;4962184;28;20022;-72
2022/09/05 03:53:15;;;;;;;3.42;1.75;;;;;;;21.86;47.19;99427.81;4976201;28;20104;-72
2022/09/05 03:56:15;;;;;;;4.18;1.90;;;;;;;22.19;46.02;99429.50;5012626;28;20564;-73
2022/09/05 03:59:17;;;;;;;4.10;2.20;;;;;;;22.69;45.03;99433.50;4883211;29;20036;-73
2022/09/05 04:01:55;;;;;;;5.53;2.10;;;;;;;23.01;44.13;99425.38;4914621;29;20044;-73
2022/09/05 04:04:41;;;;;;;6.68;1.90;;;;;;;23.39;43.45;99431.53;4899580;29;20075;-73
2022/09/05 04:07:30;;;;;;;6.00;1.48;;;;;;;23.76;42.89;99435.09;4866339;29;20551;-73
2022/09/05 04:10:01;;;;;;;3.38;1.80;;;;;;;23.79;42.53;99434.72;4864789;29;20044;-73
2022/09/05 04:12:35;;;;;;;4.40;1.90;;;;;;;23.72;42.61;99425.00;4864456;29;20036;-73
2022/09/05 04:15:29;;;;;;;4.00;1.58;;;;;;;23.98;41.93;99433.34;4895476;29;20040;-73
2022/09/05 04:17:57;;;;;;;3.20;1.67;;;;;;;24.39;41.05;99426.63;4864460;29;20494;-72
2022/09/05 04:20:34;;;;;;;6.18;1.80;;;;;;;25.15;39.42;99435.91;4845710;29;20045;-72
2022/09/05 04:23:09;;;;;;;3.28;1.80;;;;;;;25.76;38.48;99429.91;4860881;29;20033;-74
2022/09/05 04:25:40;;;;;;;4.60;1.90;;;;;;;26.20;37.43;99433.19;4876759;29;20036;-73
2022/09/05 04:28:27;;;;;;;3.72;1.58;;;;;;;27.00;35.81;99435.97;4861251;29;20041;-73
2022/09/05 04:31:28;;;;;;;3.83;1.77;;;;;;;27.86;33.63;99439.50;4875798;29;20045;-72
2022/09/05 04:33:56;;;;;;;5.22;2.10;;;;;;;28.65;31.70;99440.16;4824678;29;20049;-72
2022/09/05 04:36:32;;;;;;;4.20;1.60;;;;;;;29.37;31.38;99447.81;4885753;29;20071;-73
2022/09/05 04:39:16;;;;;;;8.10;1.90;;;;;;;30.08;29.81;99456.34;4864080;29;20048;-73
2022/09/05 04:42:00;;;;;;;3.45;1.45;;;;;;;30.73;28.81;99447.53;4895016;29;20055;-73
2022/09/05 04:44:38;;;;;;;2.17;1.38;;;;;;;31.26;27.22;99456.59;4879498;29;20064;-73
2022/09/05 04:47:07;;;;;;;2.75;1.50;;;;;;;31.80;26.45;99456.47;4864374;29;20099;-72
2022/09/05 04:49:37;;;;;;;6.70;1.65;;;;;;;32.24;26.13;99454.06;4863548;29;20528;-74
2022/09/05 04:52:10;;;;;;;4.05;1.52;;;;;;;32.69;25.59;99452.47;4848737;29;20044;-73
2022/09/05 04:54:57;;;;;;;5.55;1.58;;;;;;;33.18;25.33;99462.72;4896821;29;20051;-72
2022/09/05 04:57:38;;;;;;;3.40;1.10;;;;;;;33.58;24.18;99461.63;4933371;29;20550;-74
2022/09/05 05:00:05;;;;;;;2.83;1.40;;;;;;;33.95;24.24;99471.03;4901303;29;20032;-73
2022/09/05 05:02:32;;;;;;;2.30;1.50;;;;;;;34.20;23.33;99473.19;4932772;29;20032;-74
2022/09/05 05:05:03;;;;;;;4.18;1.50;;;;;;;34.60;22.98;99472.81;4927936;29;20548;-72
2022/09/05 05:07:47;;;;;;;3.25;1.92;;;;;;;34.82;22.65;99474.63;4882056;29;20036;-74
2022/09/05 05:10:39;;;;;;;3.80;1.60;;;;;;;35.04;22.45;99476.44;4937847;28;20047;-73
2022/09/05 05:13:07;;;;;;;2.88;1.50;;;;;;;35.40;21.70;99480.22;4916429;29;20127;-72
2022/09/05 05:15:33;;;;;;;6.05;1.70;;;;;;;35.65;21.73;99476.81;4916957;29;20055;-73
2022/09/05 05:18:22;;;;;;;3.05;1.50;;;;;;;35.78;21.66;99480.16;4900977;29;20039;-73
2022/09/05 05:20:58;;;;;;;4.47;1.40;;;;;;;35.99;21.13;99476.44;4849418;29;20148;-73
2022/09/05 05:23:38;;;;;;;3.95;1.55;;;;;;;36.20;20.19;99469.13;4857868;29;20103;-74
2022/09/05 05:26:07;;;;;;;2.30;1.40;;;;;;;36.36;20.54;99474.63;4857728;29;20045;-73
2022/09/05 05:28:38;;;;;;;7.78;1.20;;;;;;;36.48;20.00;99475.16;4857315;29;20102;-74
2022/09/05 05:31:15;;;;;;;2.08;1.20;;;;;;;36.70;19.74;99471.38;4857641;29;20155;-74
2022/09/05 05:33:40;;;;;;;2.53;1.58;;;;;;;36.80;19.82;99479.59;4841887;29;20459;-74
2022/09/05 05:36:07;;;;;;;3.85;1.30;;;;;;;36.89;19.37;99477.94;4860002;29;20041;-73
2022/09/05 05:38:33;;;;;;;4.53;1.65;;;;;;;37.02;19.55;99475.75;4845766;29;20081;-74
2022/09/05 05:41:14;;;;;;;5.47;1.98;;;;;;;37.02;19.41;99483.91;4861083;29;20473;-75
2022/09/05 05:43:41;;;;;;;6.63;1.88;;;;;;;37.19;19.48;99478.97;4860551;29;20129;-75
2022/09/05 05:46:06;;;;;;;4.18;1.83;;;;;;;37.26;18.99;99482.28;4830118;29;20037;-74
2022/09/05 05:48:38;;;;;;;2.90;1.45;;;;;;;37.45;18.92;99477.03;4830129;29;20143;-72
2022/09/05 05:51:41;;;;;;;4.40;1.42;;;;;;;37.56;19.38;99485.16;4899017;29;20456;-75
2022/09/05 05:54:15;;;;;;;7.10;1.30;;;;;;;37.65;18.59;99478.88;4930647;29;20028;-72
2022/09/05 05:57:19;;;;;;;16.52;2.45;;;;;;;37.57;18.83;99478.63;4930581;28;20031;-74
2022/09/05 06:00:07;;;;;;;11.18;2.20;;;;;;;37.79;19.30;99476.38;4975797;28;20053;-73
2022/09/05 06:02:54;;;;;;;13.82;1.60;;;;;;;37.82;19.28;99475.03;4992918;28;20051;-73
2022/09/05 06:05:37;;;;;;;14.80;1.95;;;;;;;37.78;19.09;99477.50;5001281;28;20181;-73
2022/09/05 06:08:28;;;;;;;21.63;1.85;;;;;;;37.63;19.75;99470.16;5011445;28;20386;-75
2022/09/05 06:11:13;;;;;;;8.77;1.73;;;;;;;37.53;19.75;99477.53;5010849;28;20030;-76
2022/09/05 06:14:16;;;;;;;12.18;1.50;;;;;;;37.56;19.83;99475.09;4993324;28;20041;-75
2022/09/05 06:17:17;;;;;;;6.45;1.33;;;;;;;37.40;19.64;99471.63;5012023;28;20037;-80
2022/09/05 06:20:00;;;;;;;5.97;1.15;;;;;;;37.50;19.64;99480.81;4936308;29;20047;-77
2022/09/05 06:22:47;;;;;;;3.47;1.30;;;;;;;37.52;18.98;99481.38;4951321;29;20023;-74
2022/09/05 06:25:31;;;;;;;2.67;1.20;;;;;;;37.51;19.90;99487.91;4947644;29;20027;-76
2022/09/05 06:28:08;;;;;;;7.70;1.30;;;;;;;37.59;19.00;99490.06;4948040;29;20027;-79
2022/09/05 06:30:51;;;;;;;2.75;1.02;;;;;;;37.57;19.19;99493.06;4934762;29;20122;-75
2022/09/05 06:33:41;;;;;;;6.32;1.20;;;;;;;37.55;19.51;99495.25;4936277;29;20538;-75
2022/09/05 06:36:29;;;;;;;2.10;0.98;;;;;;;37.65;18.88;99495.22;4951402;29;20076;-73
2022/09/05 06:39:02;;;;;;;1.60;0.88;;;;;;;37.69;19.28;99495.50;4933575;29;20470;-74
2022/09/05 06:42:09;;;;;;;5.43;1.10;;;;;;;37.59;19.29;99490.88;4935369;29;20483;-74
2022/09/05 06:44:39;;;;;;;37.80;2.33;;;;;;;37.58;19.69;99493.91;4897863;29;20070;-77
2022/09/05 06:47:07;;;;;;;35.28;1.92;;;;;;;37.64;19.69;99493.59;4901780;29;20036;-81
2022/09/05 06:49:57;;;;;;;4.00;0.90;;;;;;;37.55;18.33;99489.00;4902598;29;20049;-79
2022/09/05 06:53:00;;;;;;;6.55;1.23;;;;;;;37.42;19.42;99488.50;4901553;29;20580;-78
2022/09/05 06:55:37;;;;;;;3.85;1.00;;;;;;;37.48;18.86;99495.56;4903380;29;20058;-79
2022/09/05 06:58:20;;;;;;;3.75;1.10;;;;;;;37.63;19.37;99496.59;4932513;29;20023;-74
2022/09/05 07:00:50;;;;;;;3.53;1.17;;;;;;;37.72;19.36;99502.28;4931881;29;20054;-79
2022/09/05 07:03:37;;;;;;;1.60;0.80;;;;;;;37.77;19.13;99502.28;4932090;29;20035;-76
2022/09/05 07:06:23;;;;;;;2.65;1.33;;;;;;;37.80;18.47;99502.53;4915023;29;20160;-76
2022/09/05 07:09:19;;;;;;;2.00;0.90;;;;;;;37.78;17.51;99506.63;4932000;29;20062;-77
2022/09/05 07:12:01;;;;;;;1.95;0.90;;;;;;;37.92;18.43;99506.84;4931519;29;20039;-79
2022/09/05 07:14:29;;;;;;;5.20;1.13;;;;;;;38.11;18.21;99496.94;4915451;29;20032;-77
2022/09/05 07:17:12;;;;;;;2.72;0.88;;;;;;;38.24;18.31;99502.88;4932063;29;20038;-77
2022/09/05 07:19:48;;;;;;;1.88;0.90;;;;;;;38.37;18.30;99505.81;4915191;29;20035;-76
2022/09/05 07:22:23;;;;;;;2.42;1.00;;;;;;;38.42;17.79;99495.97;4991848;28;20022;-78
2022/09/05 07:24:49;;;;;;;4.93;0.90;;;;;;;38.48;17.35;99500.28;4994111;28;20030;-77
2022/09/05 07:27:47;;;;;;;1.65;0.80;;;;;;;38.57;18.22;99501.28;4977901;28;20053;-74
2022/09/05 07:30:12;;;;;;;2.58;1.00;;;;;;;38.90;16.71;99498.88;4967472;28;20042;-75
2022/09/05 07:32:45;;;;;;;2.55;0.93;;;;;;;39.24;15.68;99501.59;4961121;28;20485;-75
2022/09/05 07:35:18;;;;;;;2.97;0.70;;;;;;;39.80;15.23;99500.16;4975549;28;20109;-76
2022/09/05 07:37:44;;;;;;;1.38;0.70;;;;;;;40.58;15.17;99494.44;4977615;28;20030;-77
2022/09/05 07:40:16;;;;;;;1.65;0.77;;;;;;;41.47;13.97;99500.03;4977659;28;20042;-77
2022/09/05 07:43:03;;;;;;;2.00;0.65;;;;;;;42.03;13.19;99495.31;4976736;28;20041;-76
2022/09/05 07:45:29;;;;;;;1.70;0.68;;;;;;;41.03;14.04;99503.00;4993730;28;20041;-75
2022/09/05 07:47:59;;;;;;;2.83;0.75;;;;;;;39.79;15.59;99492.25;4977381;28;20101;-74
2022/09/05 07:50:25;;;;;;;1.77;0.63;;;;;;;39.38;16.35;99484.53;4993533;28;20029;-76
2022/09/05 07:52:50;;;;;;;1.27;0.75;;;;;;;39.01;15.96;99488.69;4976689;28;20026;-75
2022/09/05 07:55:25;;;;;;;1.58;0.82;;;;;;;38.88;16.98;99487.44;4960628;28;20052;-74
2022/09/05 07:57:53;;;;;;;1.67;0.80;;;;;;;38.86;16.56;99490.44;4974277;28;20037;-75
2022/09/05 08:00:23;;;;;;;1.33;0.80;;;;;;;38.72;15.54;99486.75;4977842;28;20032;-74
2022/09/05 08:02:49;;;;;;;1.77;0.80;;;;;;;38.59;15.87;99484.63;4977208;28;20045;-75
2022/09/05 08:05:19;;;;;;;2.53;0.80;;;;;;;38.31;16.54;99476.94;4976076;28;20498;-75
2022/09/05 08:07:47;;;;;;;2.28;0.80;;;;;;;38.21;17.61;99474.28;4976899;28;20045;-74
2022/09/05 08:10:15;;;;;;;1.67;0.70;;;;;;;38.27;16.99;99486.81;4961179;28;20030;-76
2022/09/05 08:13:01;;;;;;;2.80;0.98;;;;;;;38.24;17.02;99479.19;4976923;28;20096;-76
2022/09/05 08:15:27;;;;;;;1.80;0.70;;;;;;;38.25;17.17;99477.25;4992506;28;20134;-75
2022/09/05 08:18:11;;;;;;;0.97;0.70;;;;;;;38.19;17.05;99476.47;4960551;28;20508;-76
2022/09/05 08:20:47;;;;;;;2.53;0.77;;;;;;;38.18;16.78;99472.13;4990442;28;20087;-76
2022/09/05 08:23:33;;;;;;;1.60;0.70;;;;;;;38.04;15.68;99469.19;4990530;28;20029;-76
2022/09/05 08:26:07;;;;;;;4.93;0.93;;;;;;;37.95;15.92;99466.22;4977242;28;20474;-76
2022/09/05 08:28:57;;;;;;;4.88;1.10;;;;;;;37.90;16.32;99466.25;4959805;28;20088;-75
2022/09/05 08:31:43;;;;;;;3.22;0.80;;;;;;;37.88;17.87;99465.72;4991695;28;20099;-76
2022/09/05 08:34:14;;;;;;;2.10;0.70;;;;;;;37.97;17.35;99461.31;4992339;28;20022;-76
2022/09/05 08:36:48;;;;;;;1.20;0.70;;;;;;;37.85;17.06;99449.94;4960546;28;20043;-76
2022/09/05 08:39:21;;;;;;;2.50;0.80;;;;;;;38.03;18.10;99464.00;4961341;28;20505;-76
2022/09/05 08:42:07;;;;;;;1.48;0.73;;;;;;;38.07;17.58;99460.44;4976685;28;20034;-76
2022/09/05 08:45:27;;;;;;;4.13;0.70;;;;;;;38.15;17.55;99459.88;4990662;28;20040;-75
2022/09/05 08:48:14;;;;;;;1.92;0.70;;;;;;;38.31;18.50;99455.13;4931813;29;20039;-73
2022/09/05 08:51:03;;;;;;;8.88;0.60;;;;;;;38.49;17.89;99452.81;4899999;29;20043;-76
2022/09/05 08:53:58;;;;;;;1.30;0.70;;;;;;;38.59;17.69;99454.63;4932034;29;20043;-75
2022/09/05 08:56:26;;;;;;;1.00;0.73;;;;;;;38.63;17.21;99458.47;4899835;29;20082;-76
2022/09/05 08:59:03;;;;;;;2.85;0.70;;;;;;;38.65;17.02;99458.97;4900242;29;20071;-77
2022/09/05 09:01:56;;;;;;;1.35;0.75;;;;;;;38.58;16.54;99453.03;4931548;29;20527;-75
2022/09/05 09:04:54;;;;;;;1.65;0.50;;;;;;;38.37;15.55;99453.19;4931927;29;20102;-75
2022/09/05 09:07:47;;;;;;;3.13;0.50;;;;;;;38.35;16.40;99458.09;4893632;29;20048;-75
2022/09/05 09:10:18;;;;;;;1.00;0.45;;;;;;;37.72;17.73;99451.38;4853377;29;20144;-73
2022/09/05 09:13:03;;;;;;;1.80;0.60;;;;;;;37.53;16.79;99455.75;4878675;29;20041;-74
2022/09/05 09:15:38;;;;;;;1.05;0.50;;;;;;;37.53;16.49;99450.31;4897889;29;20073;-75
2022/09/05 09:18:37;;;;;;;1.02;0.60;;;;;;;36.86;17.07;99447.75;4897657;29;20060;-74
2022/09/05 09:21:40;;;;;;;2.40;0.57;;;;;;;37.21;16.77;99448.75;4891331;29;20040;-75
2022/09/05 09:24:12;;;;;;;2.40;0.80;;;;;;;36.54;17.78;99455.06;4970999;28;20159;-74
2022/09/05 09:26:48;;;;;;;1.35;0.60;;;;;;;36.57;17.90;99448.28;4970298;28;20039;-74
2022/09/05 09:29:14;;;;;;;2.05;0.80;;;;;;;36.99;18.27;99452.63;4908246;29;20038;-74
2022/09/05 09:31:48;;;;;;;1.95;0.65;;;;;;;36.33;18.85;99453.44;4907097;29;20035;-76
2022/09/05 09:34:28;;;;;;;2.95;0.90;;;;;;;35.96;19.04;99454.41;4970768;28;20134;-74
2022/09/05 09:37:22;;;;;;;1.67;0.70;;;;;;;36.38;19.35;99454.22;4970553;28;20092;-74
2022/09/05 09:40:20;;;;;;;1.40;0.60;;;;;;;36.52;19.38;99449.09;4924883;29;20035;-74
2022/09/05 09:42:52;;;;;;;3.72;0.82;;;;;;;36.59;19.55;99454.25;4863200;29;20041;-75
2022/09/05 09:45:30;;;;;;;2.10;1.00;;;;;;;36.83;19.48;99445.56;4863141;29;20041;-76
2022/09/05 09:48:20;;;;;;;3.28;0.77;;;;;;;36.98;19.97;99447.47;4909048;29;20079;-74
2022/09/05 09:50:58;;;;;;;2.40;0.85;;;;;;;36.88;19.31;99440.94;4935039;29;20539;-74
2022/09/05 09:53:33;;;;;;;2.88;0.70;;;;;;;36.19;20.24;99447.66;4903481;29;20094;-74
2022/09/05 09:56:17;;;;;;;1.13;0.50;;;;;;;35.78;19.98;99442.13;4894819;29;20089;-74
2022/09/05 09:59:04;;;;;;;2.55;0.70;;;;;;;35.26;20.69;99438.34;4916600;29;20071;-74
2022/09/05 10:02:20;;;;;;;4.60;1.10;;;;;;;34.99;20.78;99431.09;4900084;29;20062;-74
2022/09/05 10:05:04;;;;;;;3.70;0.80;;;;;;;34.81;21.64;99443.19;4862697;29;20612;-74
2022/09/05 10:07:35;;;;;;;4.20;0.73;;;;;;;34.40;21.11;99426.56;4879249;29;20045;-73
2022/09/05 10:10:12;;;;;;;4.25;0.80;;;;;;;34.03;21.58;99425.38;4868044;29;20030;-74
2022/09/05 10:13:14;;;;;;;6.35;0.70;;;;;;;34.29;22.51;99431.06;4859561;29;20049;-75
2022/09/05 10:16:07;;;;;;;1.25;0.50;;;;;;;34.32;22.14;99433.25;4859941;29;20191;-74
2022/09/05 10:18:41;;;;;;;1.75;0.80;;;;;;;34.40;22.45;99435.50;4847255;29;20064;-75
2022/09/05 10:21:34;;;;;;;1.58;0.60;;;;;;;34.58;22.30;99433.47;4915227;29;20040;-74
2022/09/05 10:24:12;;;;;;;1.30;0.50;;;;;;;34.24;21.44;99431.81;4915817;29;20493;-75
2022/09/05 10:26:37;;;;;;;;;;;;;;;33.98;21.50;99432.59;4915877;29;20145;-74
2022/09/05 10:29:05;;;;;;;1.88;0.70;;;;;;;33.89;21.15;99429.56;4915609;29;19915;-72
2022/09/05 10:31:57;;;;;;;2.75;0.70;;;;;;;33.70;21.76;99432.56;4899441;29;20063;-74
2022/09/05 10:34:28;;;;;;;5.45;0.88;;;;;;;33.30;22.52;99430.13;4899474;29;20084;-76
2022/09/05 10:37:02;;;;;;;5.43;0.90;;;;;;;33.08;23.01;99430.06;4899127;29;20048;-75
2022/09/05 10:39:38;;;;;;;4.63;0.60;;;;;;;32.75;25.11;99415.50;4915696;28;20061;-72
2022/09/05 10:42:24;;;;;;;6.65;0.85;;;;;;;32.76;24.88;99431.47;4974071;28;20088;-76
2022/09/05 10:44:56;;;;;;;1.75;0.88;;;;;;;32.64;24.55;99425.34;4989616;28;20041;-73
2022/09/05 10:47:40;;;;;;;4.55;0.90;;;;;;;32.73;24.13;99423.06;4973574;28;20042;-75
2022/09/05 10:50:36;;;;;;;2.20;1.00;;;;;;;32.76;23.91;99419.84;4974421;28;20038;-74
2022/09/05 10:53:30;;;;;;;3.08;0.80;;;;;;;32.82;24.13;99416.16;4971519;28;20050;-81
2022/09/05 10:56:01;;;;;;;2.08;0.55;;;;;;;32.90;23.17;99412.22;4972336;28;20050;-78
2022/09/05 10:58:35;;;;;;;1.52;0.60;;;;;;;32.94;22.99;99403.38;4975811;28;20449;-79
2022/09/05 11:01:25;;;;;;;1.27;0.70;;;;;;;32.73;22.68;99398.72;4993737;28;20031;-81
2022/09/05 11:04:14;;;;;;;3.05;0.85;;;;;;;32.48;22.77;99399.91;4920283;29;20047;-79
2022/09/05 11:06:56;;;;;;;2.05;1.35;;;;;;;32.43;23.11;99405.22;4950947;29;20162;-80
2022/09/05 11:09:31;;;;;;;5.35;1.98;;;;;;;32.33;24.24;99410.47;4925485;28;20174;-80
2022/09/05 11:12:21;;;;;;;5.55;1.58;;;;;;;32.27;24.14;99399.56;4955434;28;20039;-81
2022/09/05 11:14:54;;;;;;;3.38;1.02;;;;;;;32.31;24.96;99396.38;4941328;28;20039;-81
2022/09/05 11:17:38;;;;;;;1.40;0.90;;;;;;;32.45;23.85;99397.69;4940196;28;20043;-78
2022/09/05 11:20:14;;;;;;;2.03;0.82;;;;;;;32.39;22.58;99383.31;4954447;28;20054;-81
2022/09/05 11:22:40;;;;;;;2.25;0.85;;;;;;;32.40;23.39;99398.47;4955032;28;20047;-78
2022/09/05 11:25:30;;;;;;;1.70;0.77;;;;;;;32.15;24.21;99400.69;4938866;28;20568;-80
2022/09/05 11:27:57;;;;;;;1.65;0.80;;;;;;;32.12;23.97;99398.47;4937375;29;20090;-79
2022/09/05 11:30:26;;;;;;;1.35;0.60;;;;;;;32.04;24.56;99395.09;4919961;29;20035;-79
2022/09/05 11:33:22;;;;;;;3.90;0.90;;;;;;;32.07;24.73;99391.91;4919510;29;20510;-79
2022/09/05 11:35:54;;;;;;;1.27;0.70;;;;;;;32.15;24.66;99396.13;4936246;29;20050;-80
2022/09/05 11:38:37;;;;;;;1.20;0.80;;;;;;;31.98;24.81;99392.53;4919404;29;20050;-81
2022/09/05 11:41:23;;;;;;;3.75;0.77;;;;;;;31.86;24.24;99389.88;4966686;28;20049;-79
2022/09/05 11:44:07;;;;;;;2.47;0.73;;;;;;;31.74;24.53;99385.34;5007641;28;20027;-79
2022/09/05 11:46:42;;;;;;;2.25;0.50;;;;;;;31.58;25.20;99393.38;4991245;28;20026;-80
2022/09/05 11:49:16;;;;;;;1.48;0.70;;;;;;;31.58;25.06;99378.03;4958989;28;20046;-80
2022/09/05 11:52:03;;;;;;;2.10;0.77;;;;;;;31.60;25.41;99380.50;4991131;28;20057;-80
2022/09/05 11:54:50;;;;;;;1.10;0.60;;;;;;;31.49;24.90;99380.25;4991115;28;20042;-81
2022/09/05 11:57:34;;;;;;;1.08;0.70;;;;;;;31.59;25.30;99378.84;4992070;28;20053;-80
2022/09/05 12:00:18;;;;;;;3.30;0.70;;;;;;;31.47;25.13;99379.66;4974895;28;20565;-83
2022/09/05 12:03:13;;;;;;;4.25;0.70;;;;;;;31.54;25.24;99384.94;4960919;28;20046;-78
2022/09/05 12:06:13;;;;;;;5.68;0.70;;;;;;;31.45;24.90;99370.97;5002612;28;20054;-81
2022/09/05 12:08:59;;;;;;;1.23;0.70;;;;;;;31.55;24.70;99373.13;5013237;28;20025;-80
2022/09/05 12:11:37;;;;;;;9.23;1.10;;;;;;;31.69;25.26;99368.22;4972904;28;20038;-82
2022/09/05 12:14:24;;;;;;;2.85;0.77;;;;;;;31.76;24.76;99378.91;4992308;28;20500;-79
2022/09/05 12:17:05;;;;;;;2.08;0.93;;;;;;;31.67;25.03;99357.69;4958785;28;20041;-79
2022/09/05 12:19:31;;;;;;;2.03;0.95;;;;;;;31.74;24.66;99361.06;5002515;28;20108;-81
2022/09/05 12:22:18;;;;;;;3.17;0.68;;;;;;;31.72;24.55;99348.84;4994269;28;20029;-80
2022/09/05 12:25:03;;;;;;;2.28;0.80;;;;;;;31.79;24.65;99370.31;4993660;28;20501;-79
2022/09/05 12:27:32;;;;;;;2.45;0.60;;;;;;;31.69;24.07;99355.56;4994258;28;20160;-84
2022/09/05 12:29:58;;;;;;;1.17;0.77;;;;;;;31.67;24.15;99354.16;4978613;28;20132;-78
2022/09/05 12:32:25;;;;;;;3.33;0.80;;;;;;;31.66;24.93;99358.75;4977872;28;20045;-79
2022/09/05 12:34:58;;;;;;;2.73;0.80;;;;;;;31.64;24.54;99360.03;4962291;28;20065;-80
2022/09/05 12:37:42;;;;;;;1.50;0.70;;;;;;;31.64;23.92;99358.16;4978414;28;20037;-77